Time;durP1;ratioP1;P1;durP2;ratioP2;P2;SDS_P1;SDS_P2;PMS_P1;PMS_P2;Temp;Humidity;BMP_temperature;BMP_pressure;BME280_temperature;BME280_humidity;BME280_pressure;Samples;Min_cycle;Max_cycle;Signal;HPM_P1;HPM_P2
2022/08/23 00:01:59;;;;;;;2.42;2.22;;;16.00;88.90;;;;;;5003920;28;20030;-80
2022/08/23 00:04:29;;;;;;;1.77;1.55;;;16.00;89.40;;;;;;5000133;28;20085;-81
2022/08/23 00:06:55;;;;;;;1.70;1.60;;;15.90;90.00;;;;;;4984576;28;20390;-80
2022/08/23 00:09:23;;;;;;;2.63;1.73;;;15.90;90.20;;;;;;4965687;28;20019;-80
2022/08/23 00:11:56;;;;;;;1.63;1.52;;;15.90;90.20;;;;;;4988765;28;20085;-80
2022/08/23 00:14:27;;;;;;;1.70;1.60;;;15.90;90.30;;;;;;4991507;28;20066;-81
2022/08/23 00:16:53;;;;;;;1.77;1.65;;;15.80;90.40;;;;;;4987291;28;20529;-81
2022/08/23 00:19:21;;;;;;;1.83;1.65;;;15.70;90.70;;;;;;4970087;28;20023;-82
2022/08/23 00:21:48;;;;;;;2.35;2.00;;;15.70;91.30;;;;;;4987220;28;20010;-80
2022/08/23 00:24:14;;;;;;;2.30;1.98;;;15.70;91.30;;;;;;4995875;28;20567;-81
2022/08/23 00:26:55;;;;;;;2.45;2.20;;;15.60;91.30;;;;;;4967222;28;20042;-81
2022/08/23 00:29:26;;;;;;;2.33;2.13;;;15.60;91.40;;;;;;4968929;28;20031;-81
2022/08/23 00:31:52;;;;;;;2.95;2.17;;;15.60;91.60;;;;;;4968334;28;20027;-81
2022/08/23 00:34:20;;;;;;;2.28;2.08;;;15.50;91.70;;;;;;4967047;28;20031;-82
2022/08/23 00:36:46;;;;;;;2.35;1.80;;;15.60;91.90;;;;;;4968291;28;20000;-80
2022/08/23 00:39:12;;;;;;;2.00;1.70;;;15.60;92.20;;;;;;4967315;29;20313;-80
2022/08/23 00:41:38;;;;;;;2.50;1.90;;;15.50;92.20;;;;;;4968223;28;20127;-81
2022/08/23 00:47:38;;;;;;;1.83;1.70;;;15.50;92.50;;;;;;4970775;28;20520;-80
2022/08/23 00:49:58;;;;;;;2.03;1.88;;;15.40;92.60;;;;;;4968653;28;20032;-80
2022/08/23 00:52:37;;;;;;;2.35;2.10;;;15.40;92.60;;;;;;4967345;28;20027;-80
2022/08/23 00:55:04;;;;;;;2.47;2.17;;;15.40;92.70;;;;;;4999868;28;20034;-80
2022/08/23 00:57:31;;;;;;;2.17;1.98;;;15.40;92.80;;;;;;5026479;28;20129;-80
2022/08/23 00:59:57;;;;;;;2.53;2.00;;;15.30;92.90;;;;;;5027823;28;20034;-81
2022/08/23 01:02:23;;;;;;;2.38;2.17;;;15.30;92.90;;;;;;5026890;28;20018;-81
2022/08/23 01:04:54;;;;;;;2.30;2.10;;;15.20;93.20;;;;;;5026954;28;20026;-81
2022/08/23 01:07:23;;;;;;;4.47;2.40;;;15.20;93.40;;;;;;4995555;28;20022;-81
2022/08/23 01:09:54;;;;;;;3.15;1.98;;;15.20;93.80;;;;;;5006981;28;20027;-81
2022/08/23 01:12:27;;;;;;;2.75;2.42;;;15.10;93.50;;;;;;5006798;28;20026;-81
2022/08/23 01:14:55;;;;;;;;;;;15.10;93.60;;;;;;5008698;28;20046;-82
2022/08/23 01:17:28;;;;;;;3.30;2.88;;;15.10;93.90;;;;;;5010845;28;19920;-82
2022/08/23 01:20:01;;;;;;;4.00;2.63;;;15.00;94.10;;;;;;5016505;28;20029;-80
2022/08/23 01:23:06;;;;;;;2.58;2.38;;;14.90;94.30;;;;;;5016131;28;20082;-81
2022/08/23 01:25:32;;;;;;;4.07;2.75;;;14.90;94.60;;;;;;5021111;28;20117;-79
2022/08/23 01:27:59;;;;;;;3.28;2.15;;;14.90;94.80;;;;;;5009632;28;20018;-80
2022/08/23 01:30:30;;;;;;;2.33;2.22;;;14.90;95.00;;;;;;4987717;28;20037;-81
2022/08/23 01:32:58;;;;;;;2.05;1.85;;;14.80;95.20;;;;;;5006972;28;20026;-81
2022/08/23 01:35:34;;;;;;;1.90;1.80;;;14.80;95.30;;;;;;5006706;28;20489;-81
2022/08/23 01:38:00;;;;;;;1.95;1.85;;;14.80;95.40;;;;;;5005343;28;20049;-81
2022/08/23 01:40:26;;;;;;;2.00;1.90;;;14.80;95.60;;;;;;5006474;28;20029;-81
2022/08/23 01:42:51;;;;;;;1.98;1.88;;;14.80;95.70;;;;;;5005678;28;20122;-81
2022/08/23 01:45:17;;;;;;;1.95;1.85;;;14.80;95.80;;;;;;5006205;28;20018;-81
2022/08/23 01:47:43;;;;;;;2.45;2.00;;;14.80;96.00;;;;;;5006033;28;20116;-81
2022/08/23 01:50:11;;;;;;;2.05;1.83;;;14.80;96.10;;;;;;5006686;28;20062;-80
2022/08/23 01:52:38;;;;;;;2.10;2.00;;;14.80;96.30;;;;;;5009344;28;20048;-80
2022/08/23 01:55:04;;;;;;;2.42;2.22;;;14.80;96.60;;;;;;4980044;28;20135;-80
2022/08/23 01:57:31;;;;;;;2.92;2.17;;;14.80;96.80;;;;;;5010715;28;20078;-80
2022/08/23 01:59:57;;;;;;;2.88;2.47;;;14.80;97.00;;;;;;5008088;28;20137;-81
2022/08/23 02:02:23;;;;;;;2.22;2.05;;;14.80;97.20;;;;;;5014100;28;20014;-80
2022/08/23 02:04:49;;;;;;;3.22;2.25;;;14.80;97.40;;;;;;4995294;28;20049;-81
2022/08/23 02:07:15;;;;;;;3.78;2.90;;;14.80;97.50;;;;;;5004047;28;20129;-81
2022/08/23 02:09:41;;;;;;;2.70;2.50;;;14.70;97.60;;;;;;4967861;28;20235;-81
2022/08/23 02:12:07;;;;;;;2.47;2.28;;;14.70;97.70;;;;;;4972981;28;20047;-79
2022/08/23 02:14:33;;;;;;;4.43;2.63;;;14.70;97.90;;;;;;4967471;28;20031;-82
2022/08/23 02:16:59;;;;;;;3.70;2.58;;;14.70;98.00;;;;;;4964484;28;20034;-79
2022/08/23 02:19:25;;;;;;;2.33;2.13;;;14.70;98.10;;;;;;4972997;28;20015;-80
2022/08/23 02:21:50;;;;;;;3.28;2.60;;;14.60;98.20;;;;;;4972998;28;20027;-81
2022/08/23 02:24:20;;;;;;;4.30;3.00;;;14.60;98.40;;;;;;4978112;28;20027;-81
2022/08/23 02:26:49;;;;;;;3.10;2.72;;;14.50;98.70;;;;;;4990130;28;20034;-81
2022/08/23 02:29:17;;;;;;;3.47;2.75;;;14.50;99.00;;;;;;4980458;28;20058;-81
2022/08/23 02:31:45;;;;;;;3.45;2.67;;;14.40;99.40;;;;;;4966264;28;20062;-81
2022/08/23 02:34:13;;;;;;;4.90;2.70;;;14.30;99.80;;;;;;4967288;28;20035;-81
2022/08/23 02:36:38;;;;;;;3.25;2.95;;;14.30;99.90;;;;;;4965677;29;20035;-81
2022/08/23 02:39:06;;;;;;;3.38;3.08;;;14.20;99.90;;;;;;4964965;28;20034;-81
2022/08/23 02:41:33;;;;;;;4.00;2.92;;;14.20;99.90;;;;;;4966118;28;20032;-81
2022/08/23 02:43:59;;;;;;;3.50;3.00;;;14.20;99.90;;;;;;4967662;28;20038;-81
2022/08/23 02:46:25;;;;;;;3.10;2.90;;;14.20;99.90;;;;;;4964985;28;20024;-81
2022/08/23 02:48:50;;;;;;;2.85;2.40;;;14.20;99.90;;;;;;4966415;28;20034;-81
2022/08/23 02:51:17;;;;;;;2.30;2.10;;;14.20;99.90;;;;;;4967947;28;20042;-80
2022/08/23 02:53:43;;;;;;;2.42;2.10;;;14.20;99.90;;;;;;4990795;28;20095;-81
2022/08/23 02:56:09;;;;;;;4.97;2.60;;;14.20;99.90;;;;;;4985771;28;20428;-80
2022/08/23 02:58:35;;;;;;;2.35;2.10;;;14.20;99.90;;;;;;4984547;28;20034;-81
2022/08/23 03:01:01;;;;;;;4.38;2.40;;;14.30;99.90;;;;;;4984874;28;20082;-81
2022/08/23 03:03:28;;;;;;;2.80;2.25;;;14.30;99.90;;;;;;4984369;28;20031;-81
2022/08/23 03:05:53;;;;;;;2.90;2.70;;;14.30;99.90;;;;;;4965950;28;20051;-80
2022/08/23 03:08:20;;;;;;;5.25;3.95;;;14.20;99.90;;;;;;4983983;28;20030;-80
2022/08/23 03:10:49;;;;;;;3.28;2.95;;;14.30;99.90;;;;;;4967816;28;20027;-81
2022/08/23 03:13:15;;;;;;;3.10;2.78;;;14.30;99.90;;;;;;4965865;29;20027;-81
2022/08/23 03:15:42;;;;;;;2.92;2.47;;;14.30;99.80;;;;;;4967390;28;20031;-81
2022/08/23 03:18:09;;;;;;;2.50;2.30;;;14.30;99.90;;;;;;4971928;28;20030;-81
2022/08/23 03:20:35;;;;;;;2.70;2.50;;;14.30;99.90;;;;;;4969984;29;20031;-81
2022/08/23 03:23:01;;;;;;;2.88;2.55;;;14.30;99.90;;;;;;4972288;28;20031;-81
2022/08/23 03:25:27;;;;;;;7.43;3.00;;;14.30;99.90;;;;;;4987335;28;20037;-81
2022/08/23 03:27:53;;;;;;;2.67;2.47;;;14.30;99.90;;;;;;5004617;28;20018;-81
2022/08/23 03:30:19;;;;;;;3.03;2.78;;;14.30;99.80;;;;;;4976294;28;20050;-81
2022/08/23 03:32:44;;;;;;;2.95;2.65;;;14.30;99.80;;;;;;4970371;28;20126;-81
2022/08/23 03:35:10;;;;;;;4.30;3.35;;;14.30;99.70;;;;;;4965811;28;20081;-79
2022/08/23 03:37:36;;;;;;;6.97;3.58;;;14.30;99.60;;;;;;4978551;28;20031;-80
2022/08/23 03:40:04;;;;;;;3.47;3.15;;;14.30;99.60;;;;;;4981866;28;20098;-79
2022/08/23 03:42:30;;;;;;;5.93;3.28;;;14.30;99.60;;;;;;4979283;28;20112;-79
2022/08/23 03:44:58;;;;;;;3.55;3.25;;;14.30;99.70;;;;;;4979454;28;20015;-78
2022/08/23 03:47:24;;;;;;;3.13;2.75;;;14.30;99.80;;;;;;4982131;28;20027;-80
2022/08/23 03:49:50;;;;;;;3.58;2.60;;;14.20;99.70;;;;;;4980033;28;20057;-78
2022/08/23 03:52:18;;;;;;;3.25;2.50;;;14.20;99.70;;;;;;4983902;28;20300;-80
2022/08/23 03:54:44;;;;;;;2.70;2.50;;;14.30;99.70;;;;;;4998034;28;20042;-80
2022/08/23 03:57:11;;;;;;;2.72;2.35;;;14.20;99.80;;;;;;4991266;28;20031;-78
2022/08/23 03:59:39;;;;;;;2.35;2.17;;;14.30;99.90;;;;;;5017380;28;20027;-77
2022/08/23 04:02:04;;;;;;;4.13;2.67;;;14.20;99.90;;;;;;5012277;28;20077;-80
2022/08/23 04:04:30;;;;;;;5.38;3.30;;;14.30;99.90;;;;;;4999215;28;20030;-78
2022/08/23 04:06:56;;;;;;;2.72;2.50;;;14.30;99.90;;;;;;4971186;28;20037;-80
2022/08/23 04:09:22;;;;;;;3.20;2.50;;;14.20;99.90;;;;;;4968878;29;20041;-81
2022/08/23 04:11:48;;;;;;;3.55;3.10;;;14.30;99.90;;;;;;4968236;28;20275;-80
2022/08/23 04:14:14;;;;;;;3.15;2.60;;;14.30;99.90;;;;;;4985642;28;20339;-80
2022/08/23 04:16:40;;;;;;;3.08;2.70;;;14.20;99.90;;;;;;4986763;28;20058;-80
2022/08/23 04:19:08;;;;;;;2.88;2.65;;;14.20;99.90;;;;;;4969159;28;20026;-80
2022/08/23 04:21:36;;;;;;;3.38;2.55;;;14.20;99.90;;;;;;4987149;28;20019;-80
2022/08/23 04:24:03;;;;;;;3.72;3.13;;;14.20;99.90;;;;;;5004451;28;20140;-81
2022/08/23 04:26:29;;;;;;;3.25;2.88;;;14.30;99.90;;;;;;5006617;28;20388;-80
2022/08/23 04:28:55;;;;;;;2.85;2.53;;;14.20;99.80;;;;;;5006131;28;20034;-81
2022/08/23 04:31:22;;;;;;;2.67;2.45;;;14.20;99.70;;;;;;4989801;28;20011;-80
2022/08/23 04:33:48;;;;;;;3.08;2.30;;;14.20;99.80;;;;;;4973143;28;20011;-82
2022/08/23 04:36:14;;;;;;;5.25;2.92;;;14.20;99.90;;;;;;4989715;28;20035;-81
2022/08/23 04:38:39;;;;;;;4.40;3.13;;;14.20;99.90;;;;;;4991835;28;20037;-82
2022/08/23 04:43:49;;;;;;;3.33;2.65;;;14.30;99.90;;;;;;4995659;28;20046;-83
2022/08/23 04:46:15;;;;;;;2.90;2.70;;;14.30;99.90;;;;;;4973928;28;20023;-83
2022/08/23 04:48:43;;;;;;;2.97;2.65;;;14.20;99.90;;;;;;4976402;28;20106;-83
2022/08/23 04:51:09;;;;;;;2.30;2.17;;;14.20;99.90;;;;;;4994800;28;20042;-83
2022/08/23 04:53:35;;;;;;;3.50;3.20;;;14.10;99.90;;;;;;4986422;28;20118;-83
2022/08/23 04:56:03;;;;;;;3.97;3.08;;;14.10;99.90;;;;;;5017176;28;20065;-82
2022/08/23 04:58:29;;;;;;;3.58;3.10;;;14.10;99.90;;;;;;5015203;28;20034;-81
2022/08/23 05:00:57;;;;;;;3.95;2.78;;;14.10;99.90;;;;;;4983824;28;20039;-83
2022/08/23 05:03:23;;;;;;;2.80;2.60;;;14.10;99.90;;;;;;4991469;28;20010;-84
2022/08/23 05:05:51;;;;;;;4.32;2.88;;;14.10;99.90;;;;;;5006351;28;20440;-83
2022/08/23 05:08:17;;;;;;;3.70;2.20;;;14.20;99.90;;;;;;5006341;28;20026;-83
2022/08/23 05:10:43;;;;;;;3.75;2.67;;;14.10;99.90;;;;;;5004944;28;20127;-84
2022/08/23 05:13:09;;;;;;;4.45;2.95;;;14.20;99.90;;;;;;4988530;28;20011;-83
2022/08/23 05:15:34;;;;;;;5.35;3.25;;;14.20;99.90;;;;;;4970741;28;20093;-84
2022/08/23 05:18:00;;;;;;;3.30;3.00;;;14.20;99.90;;;;;;4985142;28;20027;-83
2022/08/23 05:20:26;;;;;;;5.03;2.88;;;14.30;99.90;;;;;;4987715;28;20031;-82
2022/08/23 05:22:53;;;;;;;3.70;3.30;;;14.30;99.90;;;;;;4996108;28;20040;-82
2022/08/23 05:25:19;;;;;;;4.43;3.20;;;14.30;99.90;;;;;;5000548;28;20019;-82
2022/08/23 05:27:49;;;;;;;5.68;3.40;;;14.40;99.90;;;;;;4992877;28;20048;-82
2022/08/23 05:30:15;;;;;;;5.13;3.40;;;14.40;99.90;;;;;;4988312;28;20034;-82
2022/08/23 05:32:40;;;;;;;4.47;3.30;;;14.40;99.90;;;;;;4986957;28;20045;-83
2022/08/23 05:35:06;;;;;;;3.40;3.03;;;14.50;99.90;;;;;;4988989;28;20054;-82
2022/08/23 05:37:32;;;;;;;5.80;3.42;;;14.50;99.90;;;;;;4987686;28;20074;-83
2022/08/23 05:39:59;;;;;;;3.28;3.05;;;14.60;99.90;;;;;;4988952;28;20058;-84
2022/08/23 05:42:24;;;;;;;5.18;2.80;;;14.60;99.90;;;;;;4989098;28;20031;-83
2022/08/23 05:44:50;;;;;;;3.10;2.78;;;14.60;99.90;;;;;;5003556;28;20080;-84
2022/08/23 05:47:16;;;;;;;3.70;3.00;;;14.70;99.90;;;;;;4989088;28;20035;-83
2022/08/23 05:49:42;;;;;;;3.88;3.05;;;14.70;99.90;;;;;;4992441;28;20098;-84
2022/08/23 05:52:11;;;;;;;3.30;3.00;;;14.80;99.90;;;;;;4978087;28;20031;-83
2022/08/23 05:54:37;;;;;;;5.68;3.45;;;14.90;99.90;;;;;;5009895;28;20035;-84
2022/08/23 05:57:03;;;;;;;3.30;3.00;;;14.90;99.60;;;;;;4998740;28;20070;-84
2022/08/23 05:59:29;;;;;;;4.88;2.90;;;15.00;99.50;;;;;;4993823;28;20066;-84
2022/08/23 06:01:56;;;;;;;5.55;4.07;;;15.00;99.50;;;;;;4994351;28;20038;-83
2022/08/23 06:04:22;;;;;;;3.67;3.20;;;15.00;99.60;;;;;;4993883;28;20018;-83
2022/08/23 06:06:48;;;;;;;5.82;3.53;;;15.10;99.70;;;;;;4994576;28;20015;-83
2022/08/23 06:09:16;;;;;;;3.45;3.00;;;15.30;99.70;;;;;;4993691;28;20023;-80
2022/08/23 06:11:44;;;;;;;4.35;3.17;;;15.30;99.30;;;;;;4976842;28;20023;-84
2022/08/23 06:14:10;;;;;;;3.95;3.22;;;15.40;99.10;;;;;;4978171;28;20046;-84
2022/08/23 06:16:43;;;;;;;5.93;3.40;;;15.40;98.90;;;;;;4996428;28;20049;-84
2022/08/23 06:19:09;;;;;;;3.33;2.70;;;15.50;98.90;;;;;;4998271;28;20007;-83
2022/08/23 06:21:36;;;;;;;2.97;2.67;;;15.60;98.50;;;;;;4998220;28;20083;-83
2022/08/23 06:24:02;;;;;;;5.60;3.28;;;15.70;98.20;;;;;;4984881;28;20153;-83
2022/08/23 06:26:33;;;;;;;4.80;3.30;;;15.80;97.60;;;;;;4975278;28;20040;-83
2022/08/23 06:29:02;;;;;;;3.10;2.80;;;15.90;97.20;;;;;;4977802;28;20016;-82
2022/08/23 06:31:44;;;;;;;4.43;2.95;;;16.10;97.00;;;;;;4977292;28;20043;-82
2022/08/23 06:34:11;;;;;;;2.50;2.30;;;;;;;;;;4978542;28;20038;-83
2022/08/23 06:36:37;;;;;;;2.35;2.05;;;21.90;86.40;;;;;;4977713;28;20023;-83
2022/08/23 06:39:05;;;;;;;1.80;1.70;;;24.70;72.80;;;;;;4983611;28;20019;-82
2022/08/23 06:41:31;;;;;;;2.00;1.40;;;;;;;;;;4995592;28;20952;-80
2022/08/23 06:43:57;;;;;;;1.95;1.80;;;28.00;58.90;;;;;;4995486;28;20030;-82
2022/08/23 06:46:26;;;;;;;2.80;1.85;;;27.60;55.60;;;;;;4978159;28;20054;-82
2022/08/23 06:48:52;;;;;;;2.00;1.75;;;25.00;57.80;;;;;;4961393;28;20025;-81
2022/08/23 06:51:26;;;;;;;2.40;2.15;;;22.50;64.00;;;;;;4980290;28;20035;-82
2022/08/23 06:53:54;;;;;;;2.85;2.03;;;20.80;70.00;;;;;;4988132;28;20050;-82
2022/08/23 06:56:21;;;;;;;3.15;2.20;;;19.50;75.40;;;;;;5006015;28;20037;-85
2022/08/23 06:58:46;;;;;;;2.33;2.13;;;18.70;79.90;;;;;;4977870;28;20031;-84
2022/08/23 07:01:33;;;;;;;2.53;2.25;;;18.10;83.20;;;;;;4978996;28;20031;-85
2022/08/23 07:04:00;;;;;;;2.90;2.30;;;17.70;85.80;;;;;;4996828;28;20050;-84
2022/08/23 07:06:27;;;;;;;3.40;2.60;;;17.50;88.00;;;;;;4976928;29;20075;-79
2022/08/23 07:08:54;;;;;;;2.22;2.03;;;17.40;89.20;;;;;;4977762;28;20471;-80
2022/08/23 07:11:21;;;;;;;3.47;2.35;;;17.40;89.90;;;;;;4993226;28;20026;-78
2022/08/23 07:13:47;;;;;;;4.90;2.45;;;17.40;89.70;;;;;;4997573;28;20030;-79
2022/08/23 07:16:14;;;;;;;3.72;2.22;;;;;;;;;;4997474;28;20061;-85
2022/08/23 07:18:40;;;;;;;2.90;2.45;;;17.50;88.10;;;;;;4978737;28;20011;-87
2022/08/23 07:21:06;;;;;;;5.55;2.15;;;17.60;88.00;;;;;;4962222;28;20011;-87
2022/08/23 07:23:33;;;;;;;2.17;1.88;;;17.60;87.00;;;;;;4978802;28;20011;-87
2022/08/23 07:26:07;;;;;;;2.72;1.95;;;17.70;86.30;;;;;;5013402;28;20065;-86
2022/08/23 07:28:33;;;;;;;2.88;2.15;;;17.80;85.40;;;;;;5021942;28;20029;-86
2022/08/23 07:31:25;;;;;;;1.80;1.70;;;17.90;84.80;;;;;;5004619;28;20034;-87
2022/08/23 07:33:52;;;;;;;2.60;1.83;;;18.00;83.80;;;;;;5015017;28;20022;-87
2022/08/23 07:36:21;;;;;;;3.33;2.20;;;18.10;82.90;;;;;;5001744;28;20034;-87
2022/08/23 07:38:47;;;;;;;2.10;1.90;;;18.20;82.00;;;;;;4983840;28;20034;-87
2022/08/23 07:41:13;;;;;;;2.13;1.63;;;18.30;81.60;;;;;;5001601;28;20019;-87
2022/08/23 07:43:40;;;;;;;3.00;2.30;;;18.40;81.30;;;;;;4984559;28;20023;-88
2022/08/23 07:46:07;;;;;;;6.70;2.63;;;18.50;80.50;;;;;;4985152;28;20022;-87
2022/08/23 07:48:33;;;;;;;5.35;2.13;;;18.60;80.00;;;;;;5002121;28;20021;-88
2022/08/23 07:51:02;;;;;;;2.55;1.60;;;18.80;79.40;;;;;;5002405;28;20011;-88
2022/08/23 07:53:28;;;;;;;1.58;1.45;;;19.00;78.40;;;;;;4990033;28;20039;-88
2022/08/23 07:55:55;;;;;;;2.20;1.83;;;19.10;77.10;;;;;;5000867;28;20027;-87
2022/08/23 07:58:23;;;;;;;1.92;1.67;;;19.30;76.20;;;;;;5000848;28;20031;-88
2022/08/23 08:00:50;;;;;;;1.73;1.60;;;19.50;76.00;;;;;;5003367;28;20090;-87
2022/08/23 08:03:16;;;;;;;1.80;1.70;;;19.60;74.50;;;;;;5021335;28;20015;-87
2022/08/23 08:05:41;;;;;;;2.75;1.73;;;19.80;73.70;;;;;;5020040;28;20072;-87
2022/08/23 08:08:08;;;;;;;2.78;1.75;;;19.90;71.80;;;;;;5019897;28;20048;-85
2022/08/23 08:10:43;;;;;;;3.17;1.58;;;20.10;70.40;;;;;;5020209;28;20046;-83
2022/08/23 08:13:10;;;;;;;2.05;1.95;;;20.20;68.30;;;;;;5021140;28;20015;-83
2022/08/23 08:15:40;;;;;;;3.83;2.10;;;20.20;67.50;;;;;;5020013;28;20050;-84
2022/08/23 08:18:06;;;;;;;5.22;1.92;;;20.20;68.00;;;;;;5020053;28;20030;-83
2022/08/23 08:21:12;;;;;;;2.78;1.60;;;20.30;68.50;;;;;;5021048;28;20053;-86
2022/08/23 08:23:38;;;;;;;3.47;2.17;;;20.50;68.80;;;;;;5020078;28;20029;-86
2022/08/23 08:26:06;;;;;;;5.13;1.80;;;20.70;66.80;;;;;;5020162;28;20046;-83
2022/08/23 08:28:34;;;;;;;3.40;1.70;;;20.90;65.70;;;;;;5020207;28;20030;-82
2022/08/23 08:31:01;;;;;;;2.67;1.60;;;21.00;64.60;;;;;;5020165;28;20018;-85
2022/08/23 08:33:27;;;;;;;2.00;1.50;;;21.10;64.00;;;;;;5019635;28;20038;-83
2022/08/23 08:36:37;;;;;;;3.28;1.60;;;21.20;64.00;;;;;;5020119;28;20030;-85
2022/08/23 08:39:07;;;;;;;2.78;1.67;;;21.40;63.50;;;;;;5019646;28;20042;-84
2022/08/23 08:42:00;;;;;;;2.55;1.50;;;21.60;62.80;;;;;;5019729;28;20082;-85
2022/08/23 08:44:38;;;;;;;3.70;1.50;;;21.60;62.30;;;;;;5019916;28;20014;-87
2022/08/23 08:47:16;;;;;;;2.03;1.50;;;21.90;61.90;;;;;;5019309;28;20027;-85
2022/08/23 08:49:43;;;;;;;2.60;1.77;;;22.00;61.30;;;;;;5020627;28;20023;-88
2022/08/23 08:52:14;;;;;;;2.58;1.50;;;22.30;61.00;;;;;;5020390;28;20010;-88
2022/08/23 08:54:42;;;;;;;3.05;2.13;;;22.50;60.70;;;;;;5019164;28;20065;-86
2022/08/23 08:57:14;;;;;;;2.38;1.85;;;22.60;60.10;;;;;;5037637;28;20082;-86
2022/08/23 08:59:52;;;;;;;2.15;1.95;;;22.70;58.70;;;;;;5040162;28;20041;-87
2022/08/23 09:02:20;;;;;;;3.15;2.03;;;22.80;58.90;;;;;;5040664;28;20025;-87
2022/08/23 09:04:46;;;;;;;9.30;2.47;;;22.80;58.40;;;;;;5039584;28;20018;-87
2022/08/23 09:07:19;;;;;;;2.33;1.75;;;23.00;58.20;;;;;;5040225;28;20018;-87
2022/08/23 09:09:50;;;;;;;1.77;1.48;;;23.00;58.10;;;;;;5039675;28;20018;-87
2022/08/23 09:12:50;;;;;;;4.90;1.65;;;23.10;57.60;;;;;;5039142;28;20010;-88
2022/08/23 09:15:32;;;;;;;2.53;1.60;;;23.20;57.50;;;;;;5030738;28;20038;-85
2022/08/23 09:18:06;;;;;;;;;;;23.50;57.00;;;;;;5019091;28;20117;-85
2022/08/23 09:20:32;;;;;;;2.03;1.65;;;23.60;56.00;;;;;;5018744;28;19898;-87
2022/08/23 09:23:28;;;;;;;2.80;1.73;;;23.70;55.90;;;;;;5018612;28;20018;-86
2022/08/23 09:25:59;;;;;;;2.97;2.00;;;23.60;55.60;;;;;;5018073;28;20010;-84
2022/08/23 09:28:28;;;;;;;3.67;2.03;;;23.60;55.30;;;;;;5017173;28;20053;-85
2022/08/23 09:30:56;;;;;;;3.75;2.15;;;23.90;54.90;;;;;;5018371;28;20091;-85
2022/08/23 09:33:44;;;;;;;4.45;1.98;;;24.10;54.60;;;;;;5018655;28;20027;-85
2022/08/23 09:36:24;;;;;;;5.10;1.73;;;24.40;53.90;;;;;;5019024;28;20030;-86
2022/08/23 09:39:22;;;;;;;4.93;1.70;;;24.40;52.90;;;;;;5018260;28;20037;-85
2022/08/23 09:45:31;;;;;;;4.00;2.17;;;24.70;51.60;;;;;;5019381;28;20026;-88
2022/08/23 09:47:56;;;;;;;6.60;2.25;;;24.80;51.00;;;;;;5018357;28;20033;-87
2022/08/23 09:50:38;;;;;;;3.45;1.85;;;24.90;51.40;;;;;;5017944;28;20106;-87
2022/08/23 09:53:14;;;;;;;3.78;1.95;;;24.80;52.00;;;;;;5018016;28;20090;-86
2022/08/23 09:55:52;;;;;;;6.40;1.90;;;24.90;50.90;;;;;;5016997;28;20092;-85
2022/08/23 09:58:24;;;;;;;2.60;1.90;;;25.00;49.80;;;;;;5017498;28;20018;-87
2022/08/23 10:01:08;;;;;;;3.45;1.63;;;25.00;50.20;;;;;;5018644;28;20060;-87
2022/08/23 10:03:33;;;;;;;4.03;1.75;;;25.10;50.00;;;;;;5018752;28;20021;-86
2022/08/23 10:06:01;;;;;;;2.60;1.77;;;25.20;49.00;;;;;;5017658;28;20026;-87
2022/08/23 10:08:35;;;;;;;2.17;1.95;;;25.20;48.20;;;;;;5018438;28;20050;-87
2022/08/23 10:11:15;;;;;;;1.40;1.30;;;25.40;48.00;;;;;;5018069;28;20086;-85
2022/08/23 10:13:42;;;;;;;5.10;1.50;;;25.40;47.50;;;;;;5017809;28;20029;-87
2022/08/23 10:16:18;;;;;;;3.92;1.67;;;25.40;46.90;;;;;;5017874;28;20035;-89
2022/08/23 10:19:38;;;;;;;1.83;1.40;;;25.20;46.10;;;;;;5018144;28;20022;-91
2022/08/23 10:22:20;;;;;;;4.28;1.70;;;25.30;46.70;;;;;;5017787;28;20030;-88
2022/08/23 10:25:02;;;;;;;2.95;1.45;;;25.60;46.70;;;;;;5050437;22;20043;-84
2022/08/23 10:31:41;;;;;;;4.38;1.98;;;25.70;46.70;;;;;;5017677;28;20026;-88
2022/08/23 10:35:05;;;;;;;2.33;1.50;;;25.90;45.80;;;;;;5017547;28;20093;-86
2022/08/23 10:37:34;;;;;;;4.85;1.80;;;26.10;45.60;;;;;;5009965;28;20070;-86
2022/08/23 10:40:24;;;;;;;1.90;1.70;;;26.20;44.40;;;;;;4994704;28;20042;-86
2022/08/23 10:50:43;;;;;;;3.45;1.55;;;26.00;46.70;;;;;;5055245;28;20065;-87
2022/08/23 10:53:17;;;;;;;2.65;1.52;;;25.90;46.70;;;;;;5020915;28;20045;-85
2022/08/23 10:56:02;;;;;;;1.85;1.23;;;25.80;46.30;;;;;;5037704;28;20061;-86
2022/08/23 10:58:52;;;;;;;1.92;1.30;;;25.90;46.70;;;;;;5037154;28;20064;-85
2022/08/23 11:01:45;;;;;;;1.17;1.02;;;26.00;45.70;;;;;;5037659;28;20022;-86
2022/08/23 11:04:28;;;;;;;2.55;1.20;;;26.00;45.60;;;;;;5037742;28;20030;-86
2022/08/23 11:06:57;;;;;;;2.95;1.63;;;26.10;44.10;;;;;;5035020;28;20030;-86
2022/08/23 11:09:22;;;;;;;2.22;1.42;;;26.00;43.20;;;;;;5017156;28;20029;-86
2022/08/23 11:12:19;;;;;;;2.65;1.75;;;26.10;42.70;;;;;;5029091;28;20014;-87
2022/08/23 11:14:55;;;;;;;1.40;1.30;;;26.20;43.10;;;;;;5035040;28;20010;-86
2022/08/23 11:17:34;;;;;;;4.45;2.33;;;26.40;44.20;;;;;;5036683;28;20018;-87
2022/08/23 11:20:07;;;;;;;3.15;1.52;;;26.50;44.60;;;;;;5036854;28;20033;-86
2022/08/23 11:22:56;;;;;;;3.78;1.63;;;26.50;44.70;;;;;;5037673;28;20014;-86
2022/08/23 11:25:25;;;;;;;1.50;1.40;;;26.50;45.30;;;;;;5009076;28;20026;-86
2022/08/23 11:28:22;;;;;;;1.30;1.20;;;26.50;44.70;;;;;;5036691;28;20110;-86
2022/08/23 11:31:09;;;;;;;1.45;1.17;;;26.50;43.90;;;;;;5035701;28;20033;-86
2022/08/23 11:33:41;;;;;;;3.13;1.58;;;26.70;43.50;;;;;;5036683;28;20030;-85
2022/08/23 11:36:07;;;;;;;2.25;1.30;;;26.70;44.20;;;;;;5036940;28;20040;-87
2022/08/23 11:38:42;;;;;;;1.60;1.50;;;26.60;44.10;;;;;;5056279;28;20022;-87
2022/08/23 11:41:25;;;;;;;2.47;1.35;;;26.80;43.30;;;;;;5055733;28;20017;-88
2022/08/23 11:43:54;;;;;;;2.85;1.27;;;26.70;44.10;;;;;;5036354;28;20057;-88
2022/08/23 11:46:25;;;;;;;1.83;1.33;;;26.50;44.20;;;;;;5036250;28;20082;-87
2022/08/23 11:48:54;;;;;;;;;;;26.50;45.00;;;;;;5039156;28;20022;-87
2022/08/23 11:51:49;;;;;;;3.25;1.33;;;26.50;41.60;;;;;;5052868;28;19908;-86
2022/08/23 11:54:30;;;;;;;12.25;1.85;;;26.50;42.70;;;;;;5037657;28;20018;-86
2022/08/23 11:57:29;;;;;;;1.20;1.10;;;26.70;43.40;;;;;;5037580;28;20034;-86
2022/08/23 12:00:27;;;;;;;2.80;1.00;;;26.90;43.90;;;;;;5017093;28;20078;-88
2022/08/23 12:03:16;;;;;;;1.42;0.98;;;26.90;42.20;;;;;;5004874;28;20029;-87
2022/08/23 12:05:52;;;;;;;2.38;1.60;;;27.00;42.50;;;;;;5032452;28;20011;-87
2022/08/23 12:08:21;;;;;;;2.75;1.35;;;27.00;42.50;;;;;;5032528;28;20106;-88
2022/08/23 12:10:47;;;;;;;3.17;1.27;;;26.80;42.30;;;;;;5032383;28;20116;-86
2022/08/23 12:13:19;;;;;;;1.70;1.00;;;26.80;42.10;;;;;;5034773;28;20086;-86
2022/08/23 12:16:10;;;;;;;1.92;0.93;;;26.60;40.90;;;;;;5035890;28;20030;-86
2022/08/23 12:18:41;;;;;;;1.37;1.07;;;26.70;41.80;;;;;;5026057;28;20124;-88
2022/08/23 12:21:10;;;;;;;2.20;1.23;;;26.90;42.50;;;;;;5040131;28;20253;-86
2022/08/23 12:23:47;;;;;;;2.97;1.73;;;27.10;42.90;;;;;;5055664;28;20022;-88
2022/08/23 12:26:25;;;;;;;6.45;1.30;;;27.30;41.70;;;;;;5039745;28;20022;-88
2022/08/23 12:29:40;;;;;;;1.63;1.05;;;27.50;41.30;;;;;;5056332;28;20044;-86
2022/08/23 12:32:12;;;;;;;3.08;1.10;;;27.50;40.80;;;;;;5056246;28;20048;-86
2022/08/23 12:34:47;;;;;;;3.00;1.15;;;27.40;41.30;;;;;;5056229;28;20044;-86
2022/08/23 12:37:27;;;;;;;1.60;1.05;;;27.30;40.90;;;;;;5040541;28;20018;-86
2022/08/23 12:39:59;;;;;;;1.40;1.02;;;27.20;41.50;;;;;;5040296;28;20006;-86
2022/08/23 12:42:34;;;;;;;4.10;1.33;;;27.50;41.90;;;;;;5056034;28;20014;-86
2022/08/23 12:45:34;;;;;;;1.92;1.30;;;27.60;40.80;;;;;;5056316;28;20017;-86
2022/08/23 12:48:01;;;;;;;2.83;1.30;;;27.50;40.40;;;;;;5038622;28;20043;-87
2022/08/23 12:50:34;;;;;;;2.17;1.20;;;27.50;41.10;;;;;;5038553;28;20034;-85
2022/08/23 12:53:05;;;;;;;2.22;1.10;;;27.50;42.10;;;;;;5039305;28;20045;-84
2022/08/23 12:55:35;;;;;;;1.00;1.00;;;27.50;41.90;;;;;;5038875;28;20033;-82
2022/08/23 12:58:03;;;;;;;1.15;1.00;;;27.60;42.00;;;;;;5039087;28;20021;-85
2022/08/23 13:00:42;;;;;;;2.42;1.48;;;27.90;41.70;;;;;;5038020;28;20089;-86
2022/08/23 13:03:19;;;;;;;2.03;1.40;;;;;;;;;;5038788;28;20084;-85
2022/08/23 13:05:48;;;;;;;1.35;1.20;;;28.00;39.60;;;;;;5054998;28;20037;-86
2022/08/23 13:08:35;;;;;;;2.33;1.60;;;;;;;;;;5038945;28;20036;-85
2022/08/23 13:11:01;;;;;;;1.48;1.20;;;;;;;;;;5031222;28;20022;-85
2022/08/23 13:13:27;;;;;;;2.10;1.40;;;;;;;;;;5038643;28;20094;-84
2022/08/23 13:15:54;;;;;;;3.63;1.30;;;;;;;;;;5037849;28;20026;-86
2022/08/23 13:18:34;;;;;;;2.65;1.50;;;;;;;;;;5021631;28;20041;-86
2022/08/23 13:21:24;;;;;;;2.10;1.33;;;;;;;;;;5038420;28;20026;-86
2022/08/23 13:23:51;;;;;;;2.35;1.45;;;;;;;;;;5039122;28;20106;-85
2022/08/23 13:26:28;;;;;;;1.80;1.13;;;;;;;;;;5038982;28;20029;-85
2022/08/23 13:29:01;;;;;;;1.42;1.27;;;;;;;;;;5039578;28;20040;-85
2022/08/23 13:31:47;;;;;;;4.07;1.65;;;;;;;;;;5039314;28;20048;-85
2022/08/23 13:34:29;;;;;;;1.55;0.90;;;;;;;;;;5038018;28;20034;-84
2022/08/23 13:37:00;;;;;;;3.78;1.13;;;;;;;;;;5038187;28;20048;-85